sensor_id;sensor_type;location;lat;lon;timestamp;temperature;humidity
18131;DHT22;9191;54.324;10.126;2022-12-01T00:00:38;6.00;99.90
18131;DHT22;9191;54.324;10.126;2022-12-01T00:03:04;6.10;99.90
18131;DHT22;9191;54.324;10.126;2022-12-01T00:05:31;6.10;99.90
18131;DHT22;9191;54.324;10.126;2022-12-01T00:07:58;6.10;99.90
18131;DHT22;9191;54.324;10.126;2022-12-01T00:10:26;6.20;99.90
18131;DHT22;9191;54.324;10.126;2022-12-01T00:12:53;6.10;99.90
18131;DHT22;9191;54.324;10.126;2022-12-01T00:15:20;6.10;99.90
18131;DHT22;9191;54.324;10.126;2022-12-01T00:17:46;6.10;99.90
18131;DHT22;9191;54.324;10.126;2022-12-01T00:20:13;6.00;99.90
18131;DHT22;9191;54.324;10.126;2022-12-01T00:22:41;5.90;99.90
18131;DHT22;9191;54.324;10.126;2022-12-01T00:25:07;5.90;99.90
18131;DHT22;9191;54.324;10.126;2022-12-01T00:27:36;6.00;99.90
18131;DHT22;9191;54.324;10.126;2022-12-01T00:30:03;6.10;99.90
18131;DHT22;9191;54.324;10.126;2022-12-01T00:32:30;5.90;99.90
18131;DHT22;9191;54.324;10.126;2022-12-01T00:34:59;5.90;99.90
18131;DHT22;9191;54.324;10.126;2022-12-01T00:37:28;5.90;99.90
18131;DHT22;9191;54.324;10.126;2022-12-01T00:39:54;5.90;99.90
18131;DHT22;9191;54.324;10.126;2022-12-01T00:42:21;6.00;99.90
18131;DHT22;9191;54.324;10.126;2022-12-01T00:44:49;5.90;99.90
18131;DHT22;9191;54.324;10.126;2022-12-01T00:47:16;6.00;99.90
18131;DHT22;9191;54.324;10.126;2022-12-01T00:49:43;6.10;99.90
18131;DHT22;9191;54.324;10.126;2022-12-01T00:52:09;6.10;99.90
18131;DHT22;9191;54.324;10.126;2022-12-01T00:54:36;6.20;99.90
18131;DHT22;9191;54.324;10.126;2022-12-01T00:57:03;6.10;99.90
18131;DHT22;9191;54.324;10.126;2022-12-01T00:59:30;6.00;99.90
18131;DHT22;9191;54.324;10.126;2022-12-01T01:01:58;6.10;99.90
18131;DHT22;9191;54.324;10.126;2022-12-01T01:04:26;6.00;99.90
18131;DHT22;9191;54.324;10.126;2022-12-01T01:06:54;6.00;99.90
18131;DHT22;9191;54.324;10.126;2022-12-01T01:09:21;6.00;99.90
18131;DHT22;9191;54.324;10.126;2022-12-01T01:11:47;6.00;99.90
18131;DHT22;9191;54.324;10.126;2022-12-01T01:14:14;6.00;99.90
18131;DHT22;9191;54.324;10.126;2022-12-01T01:16:41;5.90;99.90
18131;DHT22;9191;54.324;10.126;2022-12-01T01:19:09;6.00;99.90
18131;DHT22;9191;54.324;10.126;2022-12-01T01:21:36;5.90;99.90
18131;DHT22;9191;54.324;10.126;2022-12-01T01:24:03;6.00;99.90
18131;DHT22;9191;54.324;10.126;2022-12-01T01:26:30;6.00;99.90
18131;DHT22;9191;54.324;10.126;2022-12-01T01:28:57;6.00;99.90
18131;DHT22;9191;54.324;10.126;2022-12-01T01:31:25;6.00;99.90
18131;DHT22;9191;54.324;10.126;2022-12-01T01:33:53;6.00;99.90
18131;DHT22;9191;54.324;10.126;2022-12-01T01:36:21;5.90;99.90
18131;DHT22;9191;54.324;10.126;2022-12-01T01:38:48;5.90;99.90
18131;DHT22;9191;54.324;10.126;2022-12-01T01:41:16;5.90;99.90
18131;DHT22;9191;54.324;10.126;2022-12-01T01:43:43;5.90;99.90
18131;DHT22;9191;54.324;10.126;2022-12-01T01:46:12;6.00;99.90
18131;DHT22;9191;54.324;10.126;2022-12-01T01:48:39;5.90;99.90
18131;DHT22;9191;54.324;10.126;2022-12-01T01:51:07;5.90;99.90
18131;DHT22;9191;54.324;10.126;2022-12-01T01:53:39;5.90;99.90
18131;DHT22;9191;54.324;10.126;2022-12-01T01:56:05;6.00;99.90
18131;DHT22;9191;54.324;10.126;2022-12-01T01:58:32;6.00;99.90
18131;DHT22;9191;54.324;10.126;2022-12-01T02:00:59;6.00;99.90
18131;DHT22;9191;54.324;10.126;2022-12-01T02:03:26;5.80;99.90
18131;DHT22;9191;54.324;10.126;2022-12-01T02:05:53;6.00;99.90
18131;DHT22;9191;54.324;10.126;2022-12-01T02:08:20;6.10;99.90
18131;DHT22;9191;54.324;10.126;2022-12-01T02:10:52;6.00;99.90
18131;DHT22;9191;54.324;10.126;2022-12-01T02:13:22;5.90;99.90
18131;DHT22;9191;54.324;10.126;2022-12-01T02:15:54;5.90;99.90
18131;DHT22;9191;54.324;10.126;2022-12-01T02:18:24;5.90;99.90
18131;DHT22;9191;54.324;10.126;2022-12-01T02:21:06;5.90;99.90
18131;DHT22;9191;54.324;10.126;2022-12-01T02:23:49;6.00;99.90
18131;DHT22;9191;54.324;10.126;2022-12-01T02:26:29;5.90;99.90
18131;DHT22;9191;54.324;10.126;2022-12-01T02:29:20;5.80;99.90
18131;DHT22;9191;54.324;10.126;2022-12-01T02:31:55;5.90;99.90
18131;DHT22;9191;54.324;10.126;2022-12-01T02:34:24;6.10;99.90
18131;DHT22;9191;54.324;10.126;2022-12-01T02:36:55;6.00;99.90
18131;DHT22;9191;54.324;10.126;2022-12-01T02:39:26;6.40;99.90
18131;DHT22;9191;54.324;10.126;2022-12-01T02:42:02;6.00;99.90
18131;DHT22;9191;54.324;10.126;2022-12-01T02:44:30;6.00;99.90
18131;DHT22;9191;54.324;10.126;2022-12-01T02:46:59;5.90;99.90
18131;DHT22;9191;54.324;10.126;2022-12-01T02:49:27;6.00;99.90
18131;DHT22;9191;54.324;10.126;2022-12-01T02:51:55;6.00;99.90
18131;DHT22;9191;54.324;10.126;2022-12-01T02:54:23;5.90;99.90
18131;DHT22;9191;54.324;10.126;2022-12-01T02:56:51;5.90;99.90
18131;DHT22;9191;54.324;10.126;2022-12-01T02:59:18;5.90;99.90
18131;DHT22;9191;54.324;10.126;2022-12-01T03:01:49;5.90;99.90
18131;DHT22;9191;54.324;10.126;2022-12-01T03:04:28;6.00;99.90
18131;DHT22;9191;54.324;10.126;2022-12-01T03:07:01;6.00;99.90
18131;DHT22;9191;54.324;10.126;2022-12-01T03:09:32;6.10;99.90
18131;DHT22;9191;54.324;10.126;2022-12-01T03:12:05;6.10;99.90
18131;DHT22;9191;54.324;10.126;2022-12-01T03:14:34;6.00;99.90
18131;DHT22;9191;54.324;10.126;2022-12-01T03:17:06;6.10;99.90
18131;DHT22;9191;54.324;10.126;2022-12-01T03:19:36;5.90;99.90
18131;DHT22;9191;54.324;10.126;2022-12-01T03:22:05;5.90;99.90
18131;DHT22;9191;54.324;10.126;2022-12-01T03:24:34;5.90;99.90
18131;DHT22;9191;54.324;10.126;2022-12-01T03:27:01;5.90;99.90
18131;DHT22;9191;54.324;10.126;2022-12-01T03:29:29;6.00;99.90
18131;DHT22;9191;54.324;10.126;2022-12-01T03:31:58;5.90;99.90
18131;DHT22;9191;54.324;10.126;2022-12-01T03:34:27;5.90;99.90
18131;DHT22;9191;54.324;10.126;2022-12-01T03:36:59;5.90;99.90
18131;DHT22;9191;54.324;10.126;2022-12-01T03:39:28;5.90;99.90
18131;DHT22;9191;54.324;10.126;2022-12-01T03:41:58;6.00;99.90
18131;DHT22;9191;54.324;10.126;2022-12-01T03:44:26;6.00;99.90
18131;DHT22;9191;54.324;10.126;2022-12-01T03:46:55;6.00;99.90
18131;DHT22;9191;54.324;10.126;2022-12-01T03:49:23;6.00;99.90
18131;DHT22;9191;54.324;10.126;2022-12-01T03:51:53;5.90;99.90
18131;DHT22;9191;54.324;10.126;2022-12-01T03:54:24;5.90;99.90
18131;DHT22;9191;54.324;10.126;2022-12-01T03:56:54;6.00;99.90
18131;DHT22;9191;54.324;10.126;2022-12-01T03:59:21;5.90;99.90
18131;DHT22;9191;54.324;10.126;2022-12-01T04:01:49;6.00;99.90
18131;DHT22;9191;54.324;10.126;2022-12-01T04:04:17;6.00;99.90
18131;DHT22;9191;54.324;10.126;2022-12-01T04:06:45;6.10;99.90
18131;DHT22;9191;54.324;10.126;2022-12-01T04:09:12;6.10;99.90
18131;DHT22;9191;54.324;10.126;2022-12-01T04:11:41;6.20;99.90
18131;DHT22;9191;54.324;10.126;2022-12-01T04:14:25;6.10;99.90
18131;DHT22;9191;54.324;10.126;2022-12-01T04:16:52;6.10;99.90
18131;DHT22;9191;54.324;10.126;2022-12-01T04:19:19;6.10;99.90
18131;DHT22;9191;54.324;10.126;2022-12-01T04:21:45;6.10;99.90
18131;DHT22;9191;54.324;10.126;2022-12-01T04:24:14;6.10;99.90
18131;DHT22;9191;54.324;10.126;2022-12-01T04:26:42;6.30;99.90
18131;DHT22;9191;54.324;10.126;2022-12-01T04:29:10;6.20;99.90
18131;DHT22;9191;54.324;10.126;2022-12-01T04:31:37;6.20;99.90
18131;DHT22;9191;54.324;10.126;2022-12-01T04:34:04;6.10;99.90
18131;DHT22;9191;54.324;10.126;2022-12-01T04:36:31;6.10;99.90
18131;DHT22;9191;54.324;10.126;2022-12-01T04:38:58;6.10;99.90
18131;DHT22;9191;54.324;10.126;2022-12-01T04:41:26;6.10;99.90
18131;DHT22;9191;54.324;10.126;2022-12-01T04:43:54;6.10;99.90
18131;DHT22;9191;54.324;10.126;2022-12-01T04:46:21;6.10;99.90
18131;DHT22;9191;54.324;10.126;2022-12-01T04:48:48;6.00;99.90
18131;DHT22;9191;54.324;10.126;2022-12-01T04:51:15;6.20;99.90
18131;DHT22;9191;54.324;10.126;2022-12-01T04:53:42;6.10;99.90
18131;DHT22;9191;54.324;10.126;2022-12-01T04:56:09;6.30;99.90
18131;DHT22;9191;54.324;10.126;2022-12-01T04:58:36;6.20;99.90
18131;DHT22;9191;54.324;10.126;2022-12-01T05:01:06;6.10;99.90
18131;DHT22;9191;54.324;10.126;2022-12-01T05:03:34;6.00;99.90
18131;DHT22;9191;54.324;10.126;2022-12-01T05:06:01;6.00;99.90
18131;DHT22;9191;54.324;10.126;2022-12-01T05:08:28;6.00;99.90
18131;DHT22;9191;54.324;10.126;2022-12-01T05:10:55;6.00;99.90
18131;DHT22;9191;54.324;10.126;2022-12-01T05:13:21;6.00;99.90
18131;DHT22;9191;54.324;10.126;2022-12-01T05:15:48;6.00;99.90
18131;DHT22;9191;54.324;10.126;2022-12-01T05:18:16;5.90;99.90
18131;DHT22;9191;54.324;10.126;2022-12-01T05:20:43;6.00;99.90
18131;DHT22;9191;54.324;10.126;2022-12-01T05:23:24;5.90;99.90
18131;DHT22;9191;54.324;10.126;2022-12-01T05:25:50;6.00;99.90
18131;DHT22;9191;54.324;10.126;2022-12-01T05:28:17;6.00;99.90
18131;DHT22;9191;54.324;10.126;2022-12-01T05:30:47;5.90;99.90
18131;DHT22;9191;54.324;10.126;2022-12-01T05:33:14;5.90;99.90
18131;DHT22;9191;54.324;10.126;2022-12-01T05:35:42;6.00;99.90
18131;DHT22;9191;54.324;10.126;2022-12-01T05:38:09;6.00;99.90
18131;DHT22;9191;54.324;10.126;2022-12-01T05:40:36;6.00;99.90
18131;DHT22;9191;54.324;10.126;2022-12-01T05:43:03;6.00;99.90
18131;DHT22;9191;54.324;10.126;2022-12-01T05:45:30;6.10;99.90
18131;DHT22;9191;54.324;10.126;2022-12-01T05:47:57;6.10;99.90
18131;DHT22;9191;54.324;10.126;2022-12-01T05:50:25;6.00;99.90
18131;DHT22;9191;54.324;10.126;2022-12-01T05:52:56;6.10;99.90
18131;DHT22;9191;54.324;10.126;2022-12-01T05:55:23;6.00;99.90
18131;DHT22;9191;54.324;10.126;2022-12-01T05:57:49;6.10;99.90
18131;DHT22;9191;54.324;10.126;2022-12-01T06:00:16;6.10;99.90
18131;DHT22;9191;54.324;10.126;2022-12-01T06:02:43;6.30;99.90
18131;DHT22;9191;54.324;10.126;2022-12-01T06:05:10;6.30;99.90
18131;DHT22;9191;54.324;10.126;2022-12-01T06:07:37;6.40;99.90
18131;DHT22;9191;54.324;10.126;2022-12-01T06:10:06;6.30;99.90
18131;DHT22;9191;54.324;10.126;2022-12-01T06:12:34;6.40;99.90
18131;DHT22;9191;54.324;10.126;2022-12-01T06:15:01;6.50;99.90
18131;DHT22;9191;54.324;10.126;2022-12-01T06:17:28;6.40;99.90
18131;DHT22;9191;54.324;10.126;2022-12-01T06:19:55;6.40;99.90
18131;DHT22;9191;54.324;10.126;2022-12-01T06:22:21;6.50;99.90
18131;DHT22;9191;54.324;10.126;2022-12-01T06:24:48;6.50;99.90
18131;DHT22;9191;54.324;10.126;2022-12-01T06:27:16;6.50;99.90
18131;DHT22;9191;54.324;10.126;2022-12-01T06:29:46;6.50;99.90
18131;DHT22;9191;54.324;10.126;2022-12-01T06:32:13;6.40;99.90
18131;DHT22;9191;54.324;10.126;2022-12-01T06:34:40;6.20;99.90
18131;DHT22;9191;54.324;10.126;2022-12-01T06:37:08;6.30;99.90
18131;DHT22;9191;54.324;10.126;2022-12-01T06:39:34;6.20;99.90
18131;DHT22;9191;54.324;10.126;2022-12-01T06:42:01;6.30;99.90
18131;DHT22;9191;54.324;10.126;2022-12-01T06:44:29;6.30;99.90
18131;DHT22;9191;54.324;10.126;2022-12-01T06:46:56;6.30;99.90
18131;DHT22;9191;54.324;10.126;2022-12-01T06:49:22;6.40;99.90
18131;DHT22;9191;54.324;10.126;2022-12-01T06:51:49;6.20;99.90
18131;DHT22;9191;54.324;10.126;2022-12-01T06:54:16;6.20;99.90
18131;DHT22;9191;54.324;10.126;2022-12-01T06:56:43;6.10;99.90
18131;DHT22;9191;54.324;10.126;2022-12-01T06:59:10;6.10;99.90
18131;DHT22;9191;54.324;10.126;2022-12-01T07:01:38;6.10;99.90
18131;DHT22;9191;54.324;10.126;2022-12-01T07:04:05;6.10;99.90
18131;DHT22;9191;54.324;10.126;2022-12-01T07:06:31;6.20;99.90
18131;DHT22;9191;54.324;10.126;2022-12-01T07:08:58;6.30;99.90
18131;DHT22;9191;54.324;10.126;2022-12-01T07:11:27;6.20;99.90
18131;DHT22;9191;54.324;10.126;2022-12-01T07:13:56;6.20;99.90
18131;DHT22;9191;54.324;10.126;2022-12-01T07:16:23;6.20;99.90
18131;DHT22;9191;54.324;10.126;2022-12-01T07:18:51;6.20;99.90
18131;DHT22;9191;54.324;10.126;2022-12-01T07:21:18;6.20;99.90
18131;DHT22;9191;54.324;10.126;2022-12-01T07:23:44;6.20;99.90
18131;DHT22;9191;54.324;10.126;2022-12-01T07:26:13;6.10;99.90
18131;DHT22;9191;54.324;10.126;2022-12-01T07:28:40;6.10;99.90
18131;DHT22;9191;54.324;10.126;2022-12-01T07:31:13;6.20;99.90
18131;DHT22;9191;54.324;10.126;2022-12-01T07:33:40;6.10;99.90
18131;DHT22;9191;54.324;10.126;2022-12-01T07:36:10;6.10;99.90
18131;DHT22;9191;54.324;10.126;2022-12-01T07:38:37;6.10;99.90
18131;DHT22;9191;54.324;10.126;2022-12-01T07:41:04;6.00;99.90
18131;DHT22;9191;54.324;10.126;2022-12-01T07:43:31;6.10;99.90
18131;DHT22;9191;54.324;10.126;2022-12-01T07:46:02;6.00;99.90
18131;DHT22;9191;54.324;10.126;2022-12-01T07:48:29;6.00;99.90
18131;DHT22;9191;54.324;10.126;2022-12-01T07:50:56;6.00;99.90
18131;DHT22;9191;54.324;10.126;2022-12-01T07:53:24;6.10;99.90
18131;DHT22;9191;54.324;10.126;2022-12-01T07:55:51;6.10;99.90
18131;DHT22;9191;54.324;10.126;2022-12-01T07:58:18;6.10;99.90
18131;DHT22;9191;54.324;10.126;2022-12-01T08:00:44;6.20;99.90
18131;DHT22;9191;54.324;10.126;2022-12-01T08:03:11;6.30;99.90
18131;DHT22;9191;54.324;10.126;2022-12-01T08:05:38;6.20;99.90
18131;DHT22;9191;54.324;10.126;2022-12-01T08:08:04;6.20;99.90
18131;DHT22;9191;54.324;10.126;2022-12-01T08:10:33;6.10;99.90
18131;DHT22;9191;54.324;10.126;2022-12-01T08:12:59;6.00;99.90
18131;DHT22;9191;54.324;10.126;2022-12-01T08:15:26;6.40;99.90
18131;DHT22;9191;54.324;10.126;2022-12-01T08:17:53;6.30;99.90
18131;DHT22;9191;54.324;10.126;2022-12-01T08:20:20;6.20;99.90
18131;DHT22;9191;54.324;10.126;2022-12-01T08:22:46;6.30;99.90
18131;DHT22;9191;54.324;10.126;2022-12-01T08:25:14;6.20;99.90
18131;DHT22;9191;54.324;10.126;2022-12-01T08:27:42;6.30;99.90
18131;DHT22;9191;54.324;10.126;2022-12-01T08:30:09;6.40;99.90
18131;DHT22;9191;54.324;10.126;2022-12-01T08:32:35;6.20;99.90
18131;DHT22;9191;54.324;10.126;2022-12-01T08:35:02;6.30;99.90
18131;DHT22;9191;54.324;10.126;2022-12-01T08:37:29;6.30;99.90
18131;DHT22;9191;54.324;10.126;2022-12-01T08:39:56;6.30;99.90
18131;DHT22;9191;54.324;10.126;2022-12-01T08:42:22;6.40;99.90
18131;DHT22;9191;54.324;10.126;2022-12-01T08:44:50;6.40;99.90
18131;DHT22;9191;54.324;10.126;2022-12-01T08:47:17;6.30;99.90
18131;DHT22;9191;54.324;10.126;2022-12-01T08:49:44;6.40;99.90
18131;DHT22;9191;54.324;10.126;2022-12-01T08:52:11;6.40;99.90
18131;DHT22;9191;54.324;10.126;2022-12-01T08:54:37;6.30;99.90
18131;DHT22;9191;54.324;10.126;2022-12-01T08:57:04;6.30;99.90
18131;DHT22;9191;54.324;10.126;2022-12-01T08:59:31;6.20;99.90
18131;DHT22;9191;54.324;10.126;2022-12-01T09:01:59;6.20;99.90
18131;DHT22;9191;54.324;10.126;2022-12-01T09:04:26;6.30;99.90
18131;DHT22;9191;54.324;10.126;2022-12-01T09:06:54;6.20;99.90
18131;DHT22;9191;54.324;10.126;2022-12-01T09:09:22;6.20;99.90
18131;DHT22;9191;54.324;10.126;2022-12-01T09:11:50;6.10;99.90
18131;DHT22;9191;54.324;10.126;2022-12-01T09:14:18;6.40;99.90
18131;DHT22;9191;54.324;10.126;2022-12-01T09:16:46;6.40;99.90
18131;DHT22;9191;54.324;10.126;2022-12-01T09:19:15;6.30;99.90
18131;DHT22;9191;54.324;10.126;2022-12-01T09:21:42;6.40;99.90
18131;DHT22;9191;54.324;10.126;2022-12-01T09:24:10;6.40;99.90
18131;DHT22;9191;54.324;10.126;2022-12-01T09:26:36;6.40;99.90
18131;DHT22;9191;54.324;10.126;2022-12-01T09:29:04;6.50;99.90
18131;DHT22;9191;54.324;10.126;2022-12-01T09:31:34;6.50;99.90
18131;DHT22;9191;54.324;10.126;2022-12-01T09:34:02;6.60;99.90
18131;DHT22;9191;54.324;10.126;2022-12-01T09:36:30;6.40;99.90
18131;DHT22;9191;54.324;10.126;2022-12-01T09:38:58;7.70;99.90
18131;DHT22;9191;54.324;10.126;2022-12-01T09:41:27;9.50;99.90
18131;DHT22;9191;54.324;10.126;2022-12-01T09:43:58;10.00;99.90
18131;DHT22;9191;54.324;10.126;2022-12-01T09:46:33;10.50;99.90
18131;DHT22;9191;54.324;10.126;2022-12-01T09:49:02;10.80;99.90
18131;DHT22;9191;54.324;10.126;2022-12-01T09:51:32;10.50;99.90
18131;DHT22;9191;54.324;10.126;2022-12-01T09:54:01;9.30;99.90
18131;DHT22;9191;54.324;10.126;2022-12-01T09:56:29;8.20;99.90
18131;DHT22;9191;54.324;10.126;2022-12-01T09:58:57;7.80;99.90
18131;DHT22;9191;54.324;10.126;2022-12-01T10:01:26;7.40;99.90
18131;DHT22;9191;54.324;10.126;2022-12-01T10:03:56;7.20;99.90
18131;DHT22;9191;54.324;10.126;2022-12-01T10:06:26;7.10;99.90
18131;DHT22;9191;54.324;10.126;2022-12-01T10:08:59;6.90;99.90
18131;DHT22;9191;54.324;10.126;2022-12-01T10:11:29;6.70;99.90
18131;DHT22;9191;54.324;10.126;2022-12-01T10:13:57;6.70;99.90
18131;DHT22;9191;54.324;10.126;2022-12-01T10:16:32;6.70;99.90
18131;DHT22;9191;54.324;10.126;2022-12-01T10:19:05;6.70;99.90
18131;DHT22;9191;54.324;10.126;2022-12-01T10:21:38;6.60;99.90
18131;DHT22;9191;54.324;10.126;2022-12-01T10:24:11;6.80;99.90
18131;DHT22;9191;54.324;10.126;2022-12-01T10:26:50;6.50;99.90
18131;DHT22;9191;54.324;10.126;2022-12-01T10:29:23;6.60;99.90
18131;DHT22;9191;54.324;10.126;2022-12-01T10:31:51;6.60;99.90
18131;DHT22;9191;54.324;10.126;2022-12-01T10:34:20;6.60;99.90
18131;DHT22;9191;54.324;10.126;2022-12-01T10:36:47;6.60;99.90
18131;DHT22;9191;54.324;10.126;2022-12-01T10:39:17;6.60;99.90
18131;DHT22;9191;54.324;10.126;2022-12-01T10:41:45;6.60;99.90
18131;DHT22;9191;54.324;10.126;2022-12-01T10:44:12;6.70;99.90
18131;DHT22;9191;54.324;10.126;2022-12-01T10:46:44;7.10;99.90
18131;DHT22;9191;54.324;10.126;2022-12-01T10:49:13;9.90;99.90
18131;DHT22;9191;54.324;10.126;2022-12-01T10:51:52;11.10;99.90
18131;DHT22;9191;54.324;10.126;2022-12-01T10:54:23;12.50;99.90
18131;DHT22;9191;54.324;10.126;2022-12-01T10:56:58;12.50;99.90
18131;DHT22;9191;54.324;10.126;2022-12-01T10:59:29;13.10;99.90
18131;DHT22;9191;54.324;10.126;2022-12-01T11:01:58;13.40;99.90
18131;DHT22;9191;54.324;10.126;2022-12-01T11:04:37;12.70;99.90
18131;DHT22;9191;54.324;10.126;2022-12-01T11:07:16;10.70;99.90
18131;DHT22;9191;54.324;10.126;2022-12-01T11:10:01;9.70;99.90
18131;DHT22;9191;54.324;10.126;2022-12-01T11:12:28;8.80;99.90
18131;DHT22;9191;54.324;10.126;2022-12-01T11:14:56;9.40;99.90
18131;DHT22;9191;54.324;10.126;2022-12-01T11:17:27;10.40;99.90
18131;DHT22;9191;54.324;10.126;2022-12-01T11:19:55;11.20;99.90
18131;DHT22;9191;54.324;10.126;2022-12-01T11:22:23;10.20;99.90
18131;DHT22;9191;54.324;10.126;2022-12-01T11:25:03;9.60;99.90
18131;DHT22;9191;54.324;10.126;2022-12-01T11:27:33;8.90;99.90
18131;DHT22;9191;54.324;10.126;2022-12-01T11:30:03;8.40;99.90
18131;DHT22;9191;54.324;10.126;2022-12-01T11:32:33;7.90;99.90
18131;DHT22;9191;54.324;10.126;2022-12-01T11:35:03;7.60;99.90
18131;DHT22;9191;54.324;10.126;2022-12-01T11:37:30;7.50;99.90
18131;DHT22;9191;54.324;10.126;2022-12-01T11:40:11;7.30;99.90
18131;DHT22;9191;54.324;10.126;2022-12-01T11:42:39;7.10;99.90
18131;DHT22;9191;54.324;10.126;2022-12-01T11:45:21;6.90;99.90
18131;DHT22;9191;54.324;10.126;2022-12-01T11:48:05;6.90;99.90
18131;DHT22;9191;54.324;10.126;2022-12-01T11:50:33;6.90;99.90
18131;DHT22;9191;54.324;10.126;2022-12-01T11:53:00;6.90;99.90
18131;DHT22;9191;54.324;10.126;2022-12-01T11:55:28;6.80;99.90
18131;DHT22;9191;54.324;10.126;2022-12-01T11:57:56;6.70;99.90
18131;DHT22;9191;54.324;10.126;2022-12-01T12:00:24;6.70;99.90
18131;DHT22;9191;54.324;10.126;2022-12-01T12:05:48;6.70;99.90
18131;DHT22;9191;54.324;10.126;2022-12-01T12:08:25;6.70;99.90
18131;DHT22;9191;54.324;10.126;2022-12-01T12:10:57;6.70;99.90
18131;DHT22;9191;54.324;10.126;2022-12-01T12:16:09;6.60;99.90
18131;DHT22;9191;54.324;10.126;2022-12-01T12:18:42;6.60;99.90
18131;DHT22;9191;54.324;10.126;2022-12-01T12:21:20;6.70;99.90
18131;DHT22;9191;54.324;10.126;2022-12-01T12:23:51;6.80;99.90
18131;DHT22;9191;54.324;10.126;2022-12-01T12:26:23;6.80;99.90
18131;DHT22;9191;54.324;10.126;2022-12-01T12:29:03;6.80;99.90
18131;DHT22;9191;54.324;10.126;2022-12-01T12:31:44;6.90;99.90
18131;DHT22;9191;54.324;10.126;2022-12-01T12:34:18;6.80;99.90
18131;DHT22;9191;54.324;10.126;2022-12-01T12:36:51;6.70;99.90
18131;DHT22;9191;54.324;10.126;2022-12-01T12:39:31;6.70;99.90
18131;DHT22;9191;54.324;10.126;2022-12-01T12:42:02;6.70;99.90
18131;DHT22;9191;54.324;10.126;2022-12-01T12:44:39;6.60;99.90
18131;DHT22;9191;54.324;10.126;2022-12-01T12:47:10;6.70;99.90
18131;DHT22;9191;54.324;10.126;2022-12-01T12:49:44;6.70;99.90
18131;DHT22;9191;54.324;10.126;2022-12-01T12:52:17;6.70;99.90
18131;DHT22;9191;54.324;10.126;2022-12-01T12:54:46;6.70;99.90
18131;DHT22;9191;54.324;10.126;2022-12-01T12:57:24;6.60;99.90
18131;DHT22;9191;54.324;10.126;2022-12-01T12:59:53;6.40;99.90
18131;DHT22;9191;54.324;10.126;2022-12-01T13:02:24;6.40;99.90
18131;DHT22;9191;54.324;10.126;2022-12-01T13:04:57;6.30;99.90
18131;DHT22;9191;54.324;10.126;2022-12-01T13:07:28;6.40;99.90
18131;DHT22;9191;54.324;10.126;2022-12-01T13:09:59;6.30;99.90
18131;DHT22;9191;54.324;10.126;2022-12-01T13:12:30;6.30;99.90
18131;DHT22;9191;54.324;10.126;2022-12-01T13:14:59;6.30;99.90
18131;DHT22;9191;54.324;10.126;2022-12-01T13:17:30;6.20;99.90
18131;DHT22;9191;54.324;10.126;2022-12-01T13:19:58;6.10;99.90
18131;DHT22;9191;54.324;10.126;2022-12-01T13:22:28;6.10;99.90
18131;DHT22;9191;54.324;10.126;2022-12-01T13:24:55;6.10;99.90
18131;DHT22;9191;54.324;10.126;2022-12-01T13:27:22;6.20;99.90
18131;DHT22;9191;54.324;10.126;2022-12-01T13:29:52;6.20;99.90
18131;DHT22;9191;54.324;10.126;2022-12-01T13:32:24;6.20;99.90
18131;DHT22;9191;54.324;10.126;2022-12-01T13:34:52;6.20;99.90
18131;DHT22;9191;54.324;10.126;2022-12-01T13:37:24;6.10;99.90
18131;DHT22;9191;54.324;10.126;2022-12-01T13:39:52;6.20;99.90
18131;DHT22;9191;54.324;10.126;2022-12-01T13:42:20;6.20;99.90
18131;DHT22;9191;54.324;10.126;2022-12-01T13:44:50;6.20;99.90
18131;DHT22;9191;54.324;10.126;2022-12-01T13:47:37;6.20;99.90
18131;DHT22;9191;54.324;10.126;2022-12-01T13:52:55;6.20;99.90
18131;DHT22;9191;54.324;10.126;2022-12-01T13:55:32;6.10;99.90
18131;DHT22;9191;54.324;10.126;2022-12-01T13:58:21;6.20;99.90
18131;DHT22;9191;54.324;10.126;2022-12-01T14:00:48;6.20;99.90
18131;DHT22;9191;54.324;10.126;2022-12-01T14:03:31;6.10;99.90
18131;DHT22;9191;54.324;10.126;2022-12-01T14:06:04;6.10;99.90
18131;DHT22;9191;54.324;10.126;2022-12-01T14:08:32;6.20;99.90
18131;DHT22;9191;54.324;10.126;2022-12-01T14:11:00;6.20;99.90
18131;DHT22;9191;54.324;10.126;2022-12-01T14:13:28;6.10;99.90
18131;DHT22;9191;54.324;10.126;2022-12-01T14:15:59;6.00;99.90
18131;DHT22;9191;54.324;10.126;2022-12-01T14:18:29;6.00;99.90
18131;DHT22;9191;54.324;10.126;2022-12-01T14:20:58;6.00;99.90
18131;DHT22;9191;54.324;10.126;2022-12-01T14:23:27;6.00;99.90
18131;DHT22;9191;54.324;10.126;2022-12-01T14:25:55;5.90;99.90
18131;DHT22;9191;54.324;10.126;2022-12-01T14:31:05;5.80;99.90
18131;DHT22;9191;54.324;10.126;2022-12-01T14:33:48;5.70;99.90
18131;DHT22;9191;54.324;10.126;2022-12-01T14:36:35;5.70;99.90
18131;DHT22;9191;54.324;10.126;2022-12-01T14:39:04;5.60;99.90
18131;DHT22;9191;54.324;10.126;2022-12-01T14:41:33;5.60;99.90
18131;DHT22;9191;54.324;10.126;2022-12-01T14:44:04;5.50;99.90
18131;DHT22;9191;54.324;10.126;2022-12-01T14:46:34;5.60;99.90
18131;DHT22;9191;54.324;10.126;2022-12-01T14:49:04;5.60;99.90
18131;DHT22;9191;54.324;10.126;2022-12-01T14:51:31;5.60;99.90
18131;DHT22;9191;54.324;10.126;2022-12-01T14:54:01;5.60;99.90
18131;DHT22;9191;54.324;10.126;2022-12-01T14:56:29;5.60;99.90
18131;DHT22;9191;54.324;10.126;2022-12-01T14:58:59;5.60;99.90
18131;DHT22;9191;54.324;10.126;2022-12-01T15:01:28;5.60;99.90
18131;DHT22;9191;54.324;10.126;2022-12-01T15:03:56;5.60;99.90
18131;DHT22;9191;54.324;10.126;2022-12-01T15:06:24;5.50;99.90
18131;DHT22;9191;54.324;10.126;2022-12-01T15:09:04;5.50;99.90
18131;DHT22;9191;54.324;10.126;2022-12-01T15:11:31;5.40;99.90
18131;DHT22;9191;54.324;10.126;2022-12-01T15:14:00;5.20;99.90
18131;DHT22;9191;54.324;10.126;2022-12-01T15:16:28;5.30;99.90
18131;DHT22;9191;54.324;10.126;2022-12-01T15:18:56;5.30;99.90
18131;DHT22;9191;54.324;10.126;2022-12-01T15:21:23;5.40;99.90
18131;DHT22;9191;54.324;10.126;2022-12-01T15:23:56;5.50;99.90
18131;DHT22;9191;54.324;10.126;2022-12-01T15:26:25;5.60;99.90
18131;DHT22;9191;54.324;10.126;2022-12-01T15:29:03;5.50;99.90
18131;DHT22;9191;54.324;10.126;2022-12-01T15:31:30;5.50;99.90
18131;DHT22;9191;54.324;10.126;2022-12-01T15:33:57;5.40;99.90
18131;DHT22;9191;54.324;10.126;2022-12-01T15:36:24;5.40;99.90
18131;DHT22;9191;54.324;10.126;2022-12-01T15:38:51;5.50;99.90
18131;DHT22;9191;54.324;10.126;2022-12-01T15:41:18;5.50;99.90
18131;DHT22;9191;54.324;10.126;2022-12-01T15:43:53;5.40;99.90
18131;DHT22;9191;54.324;10.126;2022-12-01T15:46:25;5.50;99.90
18131;DHT22;9191;54.324;10.126;2022-12-01T15:49:04;5.40;99.90
18131;DHT22;9191;54.324;10.126;2022-12-01T15:51:31;5.50;99.90
18131;DHT22;9191;54.324;10.126;2022-12-01T15:53:58;5.40;99.90
18131;DHT22;9191;54.324;10.126;2022-12-01T15:56:26;5.40;99.90
18131;DHT22;9191;54.324;10.126;2022-12-01T15:58:55;5.40;99.90
18131;DHT22;9191;54.324;10.126;2022-12-01T16:01:27;5.30;99.90
18131;DHT22;9191;54.324;10.126;2022-12-01T16:03:55;5.30;99.90
18131;DHT22;9191;54.324;10.126;2022-12-01T16:06:23;5.30;99.90
18131;DHT22;9191;54.324;10.126;2022-12-01T16:08:52;5.10;99.90